createdAt,value
2022-11-03T00:01:57.877Z,101336.69
2022-11-03T00:07:04.892Z,101333.28
2022-11-03T00:12:13.029Z,101328.97
2022-11-03T00:17:19.831Z,101343.75
2022-11-03T00:22:26.693Z,101342.94
2022-11-03T00:27:35.955Z,101340.47
2022-11-03T00:32:42.571Z,101336.94
2022-11-03T00:37:49.130Z,101340.44
2022-11-03T00:42:57.319Z,101346.59
2022-11-03T00:48:26.563Z,101341.41
2022-11-03T00:53:34.271Z,101358.72
2022-11-03T00:58:42.804Z,101357.03
2022-11-03T01:04:05.697Z,101354.50
2022-11-03T01:09:12.465Z,101357.97
2022-11-03T01:14:20.592Z,101358.84
2022-11-03T01:19:27.368Z,101362.34
2022-11-03T01:24:33.955Z,101360.63
2022-11-03T01:29:42.196Z,101367.53
2022-11-03T01:34:48.551Z,101371.91
2022-11-03T01:39:55.479Z,101372.78
2022-11-03T01:45:03.703Z,101365.00
2022-11-03T01:50:15.383Z,101359.81
2022-11-03T01:55:26.262Z,101369.34
2022-11-03T02:00:34.414Z,101365.94
2022-11-03T02:05:42.083Z,101362.50
2022-11-03T02:10:50.854Z,101369.41
2022-11-03T02:16:01.318Z,101372.88
2022-11-03T02:21:27.265Z,101365.09
2022-11-03T02:26:35.981Z,101365.94
2022-11-03T02:31:51.281Z,101375.47
2022-11-03T02:37:04.212Z,101378.94
2022-11-03T02:42:14.382Z,101383.28
2022-11-03T02:47:22.302Z,101384.16
2022-11-03T02:52:40.800Z,101380.69
2022-11-03T02:57:55.167Z,101390.19
2022-11-03T03:03:09.436Z,101391.06
2022-11-03T03:08:18.140Z,101390.19
2022-11-03T03:13:27.078Z,101400.56
2022-11-03T03:18:44.539Z,101393.63
2022-11-03T03:23:56.654Z,101404.03
2022-11-03T03:29:12.444Z,101406.63
2022-11-03T03:34:34.573Z,101415.28
2022-11-03T03:39:45.768Z,101410.06
2022-11-03T03:44:54.622Z,101409.19
2022-11-03T03:50:02.654Z,101423.03
2022-11-03T03:55:18.723Z,101419.53
2022-11-03T04:00:26.761Z,101420.41
2022-11-03T04:05:33.277Z,101422.06
2022-11-03T04:10:39.634Z,101419.41
2022-11-03T04:16:04.758Z,101428.09
2022-11-03T04:21:32.868Z,101422.09
2022-11-03T04:26:39.638Z,101428.16
2022-11-03T04:31:47.671Z,101438.56
2022-11-03T04:36:54.132Z,101427.28
2022-11-03T04:42:00.722Z,101424.69
2022-11-03T04:47:13.359Z,101429.03
2022-11-03T04:52:23.147Z,101425.53
2022-11-03T04:57:30.864Z,101425.44
2022-11-03T05:02:38.829Z,101428.91
2022-11-03T05:07:45.438Z,101428.88
2022-11-03T05:12:54.277Z,101438.38
2022-11-03T05:18:04.249Z,101434.81
2022-11-03T05:23:14.725Z,101439.25
2022-11-03T05:28:27.889Z,101452.28
2022-11-03T05:33:39.121Z,101452.19
2022-11-03T05:38:45.207Z,101459.00
2022-11-03T05:43:59.261Z,101460.81
2022-11-03T05:49:08.564Z,101459.94
2022-11-03T05:54:24.061Z,101459.97
2022-11-03T05:59:31.153Z,101471.06
2022-11-03T06:04:40.800Z,101467.53
2022-11-03T06:09:46.843Z,101463.06
2022-11-03T06:14:53.946Z,101470.75
2022-11-03T06:20:03.377Z,101476.91
2022-11-03T06:25:22.639Z,101471.81
2022-11-03T06:30:31.352Z,101485.66
2022-11-03T06:35:38.710Z,101487.50
2022-11-03T06:40:44.649Z,101480.69
2022-11-03T06:45:57.180Z,101485.03
2022-11-03T06:51:20.197Z,101489.38
2022-11-03T06:56:30.367Z,101492.88
2022-11-03T07:01:37.870Z,101495.44
2022-11-03T07:06:52.797Z,101497.22
2022-11-03T07:12:02.413Z,101495.50
2022-11-03T07:17:17.199Z,101493.78
2022-11-03T07:22:28.003Z,101486.03
2022-11-03T07:27:38.178Z,101485.13
2022-11-03T07:32:44.860Z,101483.44
2022-11-03T07:37:54.201Z,101477.44
2022-11-03T07:43:11.528Z,101475.72
2022-11-03T07:48:24.557Z,101474.91
2022-11-03T07:53:43.775Z,101478.34
2022-11-03T07:58:52.814Z,101476.66
2022-11-03T08:04:06.454Z,101469.72
2022-11-03T08:09:14.361Z,101463.72
2022-11-03T08:14:21.042Z,101462.81
2022-11-03T08:19:27.530Z,101462.84
2022-11-03T08:24:35.850Z,101460.25
2022-11-03T08:29:42.387Z,101456.81
2022-11-03T08:34:48.828Z,101456.81
2022-11-03T08:39:56.858Z,101457.72
2022-11-03T08:45:03.542Z,101450.78
2022-11-03T08:50:10.830Z,101447.34
2022-11-03T08:55:19.091Z,101442.13
2022-11-03T09:00:25.767Z,101445.63
2022-11-03T09:05:32.760Z,101442.19
2022-11-03T09:10:43.510Z,101437.84
2022-11-03T09:15:50.657Z,101437.84
2022-11-03T09:20:57.613Z,101438.72
2022-11-03T09:26:06.524Z,101436.97
2022-11-03T09:31:13.157Z,101435.25
2022-11-03T09:36:19.388Z,101431.75
2022-11-03T09:41:45.876Z,101420.47
2022-11-03T09:46:58.245Z,101424.75
2022-11-03T09:52:06.263Z,101424.72
2022-11-03T09:57:18.187Z,101411.69
2022-11-03T10:02:30.422Z,101407.34
2022-11-03T10:07:37.513Z,101405.56
2022-11-03T10:12:45.922Z,101396.00
2022-11-03T10:17:58.478Z,101395.09
2022-11-03T10:23:05.003Z,101388.13
2022-11-03T10:28:22.568Z,101387.19
2022-11-03T10:33:33.976Z,101385.44
2022-11-03T10:38:40.190Z,101388.88
2022-11-03T10:44:02.271Z,101381.03
2022-11-03T10:49:16.553Z,101376.69
2022-11-03T10:54:25.287Z,101367.09
2022-11-03T10:59:37.098Z,101358.38
2022-11-03T11:04:43.678Z,101352.22
2022-11-03T11:09:50.155Z,101341.72
2022-11-03T11:15:00.127Z,101348.72
2022-11-03T11:20:43.502Z,101335.69
2022-11-03T11:26:29.992Z,101325.19
2022-11-03T11:31:38.569Z,101315.66
2022-11-03T11:36:48.050Z,101316.38
2022-11-03T11:48:00.158Z,101300.50
2022-11-03T11:53:27.610Z,101289.09
2022-11-03T11:59:03.342Z,101287.31
2022-11-03T12:04:20.707Z,101277.72
2022-11-03T12:09:29.647Z,101275.81
2022-11-03T12:14:38.262Z,101272.34
2022-11-03T12:19:48.252Z,101263.66
2022-11-03T12:24:56.043Z,101263.66
2022-11-03T12:30:05.132Z,101254.13
2022-11-03T12:35:14.159Z,101262.00
2022-11-03T12:40:20.214Z,101255.78
2022-11-03T12:45:26.285Z,101246.97
2022-11-03T12:50:34.679Z,101249.47
2022-11-03T12:55:43.794Z,101251.19
2022-11-03T13:00:54.993Z,101242.41
2022-11-03T13:06:05.610Z,101238.94
2022-11-03T13:11:25.296Z,101233.69
2022-11-03T13:16:31.332Z,101230.34
2022-11-03T13:21:39.165Z,101231.28
2022-11-03T13:26:45.096Z,101227.72
2022-11-03T13:31:51.300Z,101229.31
2022-11-03T13:36:58.986Z,101223.25
2022-11-03T13:42:05.029Z,101215.41
2022-11-03T13:47:11.985Z,101211.06
2022-11-03T13:52:19.633Z,101214.63
2022-11-03T14:08:19.265Z,101204.38
2022-11-03T14:13:25.282Z,101201.00
2022-11-03T14:18:31.283Z,101197.59
2022-11-03T14:23:38.802Z,101197.72
2022-11-03T14:28:45.250Z,101189.94
2022-11-03T14:33:51.261Z,101194.34
2022-11-03T14:38:58.772Z,101183.16
2022-11-03T14:44:05.041Z,101174.56
2022-11-03T14:49:11.354Z,101172.13
2022-11-03T14:54:18.808Z,101180.03
2022-11-03T14:59:25.687Z,101174.06
2022-11-03T15:04:31.666Z,101176.81
2022-11-03T15:09:39.127Z,101163.91
2022-11-03T15:14:45.101Z,101163.13
2022-11-03T15:19:51.471Z,101160.59
2022-11-03T15:25:15.996Z,101145.03
2022-11-03T15:30:24.794Z,101151.19
2022-11-03T15:35:31.014Z,101144.41
2022-11-03T15:40:38.554Z,101139.28
2022-11-03T15:45:44.656Z,101140.16
2022-11-03T15:50:51.155Z,101140.25
2022-11-03T15:55:58.973Z,101135.16
2022-11-03T16:01:06.024Z,101131.81
2022-11-03T16:06:12.473Z,101131.84
2022-11-03T16:11:19.919Z,101124.09
2022-11-03T16:16:27.217Z,101112.13
2022-11-03T16:21:33.823Z,101096.66
2022-11-03T16:26:41.223Z,101059.66
2022-11-03T16:31:49.488Z,101034.59
2022-11-03T16:36:56.479Z,101030.19
2022-11-03T16:42:05.465Z,101040.47
2022-11-03T16:47:12.085Z,101024.97
2022-11-03T16:52:18.917Z,101027.53
2022-11-03T16:57:26.337Z,101035.31
2022-11-03T17:02:40.614Z,101037.91
2022-11-03T17:07:52.042Z,101034.47
2022-11-03T17:13:03.063Z,101037.88
2022-11-03T17:18:12.042Z,101040.44
2022-11-03T17:23:18.571Z,101038.81
2022-11-03T17:28:28.248Z,101034.50
2022-11-03T17:33:35.172Z,101031.03
2022-11-03T17:38:41.579Z,101030.97
2022-11-03T17:43:50.195Z,101027.59
2022-11-03T17:48:56.649Z,101023.31
2022-11-03T17:54:08.800Z,101024.19
2022-11-03T17:59:18.635Z,101018.97
2022-11-03T18:04:25.548Z,101012.94
2022-11-03T18:09:33.079Z,101010.44
2022-11-03T18:14:40.827Z,101008.72
2022-11-03T18:19:47.762Z,101007.00
2022-11-03T18:24:54.558Z,100984.56
2022-11-03T18:30:03.708Z,100988.00
2022-11-03T18:35:19.218Z,100974.19
2022-11-03T18:40:27.314Z,100966.41
2022-11-03T18:45:36.603Z,100962.09
2022-11-03T18:50:45.317Z,100949.16
2022-11-03T18:55:52.583Z,100949.16
2022-11-03T19:01:03.122Z,100937.91
2022-11-03T19:06:16.374Z,100934.47
2022-11-03T19:11:24.551Z,100920.66
2022-11-03T19:16:33.359Z,100907.72
2022-11-03T19:21:40.707Z,100915.47
2022-11-03T19:26:56.349Z,100914.63
2022-11-03T19:32:18.160Z,100918.06
2022-11-03T19:37:24.996Z,100912.00
2022-11-03T19:42:33.860Z,100906.81
2022-11-03T19:48:10.703Z,100899.09
2022-11-03T19:53:20.851Z,100899.09
2022-11-03T19:58:30.454Z,100897.38
2022-11-03T20:03:40.582Z,100890.44
2022-11-03T20:08:50.583Z,100895.59
2022-11-03T20:14:09.562Z,100902.53
2022-11-03T20:19:18.353Z,100898.19
2022-11-03T20:24:26.155Z,100887.00
2022-11-03T20:29:34.919Z,100885.25
2022-11-03T20:34:44.552Z,100874.03
2022-11-03T20:39:52.283Z,100872.34
2022-11-03T20:45:00.601Z,100861.97
2022-11-03T20:50:11.427Z,100857.63
2022-11-03T20:55:20.253Z,100846.41
2022-11-03T21:00:29.093Z,100831.75
2022-11-03T21:05:37.886Z,100811.88
2022-11-03T21:10:45.613Z,100800.69
2022-11-03T21:16:23.988Z,100795.50
2022-11-03T21:21:33.519Z,100790.34
2022-11-03T21:26:42.529Z,100783.38
2022-11-03T21:31:49.558Z,100771.28
2022-11-03T21:36:57.882Z,100772.13
2022-11-03T21:42:24.008Z,100779.13
2022-11-03T21:47:30.538Z,100782.56
2022-11-03T21:52:38.525Z,100773.00
2022-11-03T21:57:45.031Z,100767.81
2022-11-03T22:02:51.599Z,100771.31
2022-11-03T22:07:59.618Z,100760.97
2022-11-03T22:13:07.395Z,100741.09
2022-11-03T22:18:14.214Z,100729.84
2022-11-03T22:23:39.565Z,100730.75
2022-11-03T22:28:46.243Z,100732.50
2022-11-03T22:34:09.839Z,100732.44
2022-11-03T22:39:35.243Z,100737.72
2022-11-03T22:44:58.932Z,100724.72
2022-11-03T22:50:05.935Z,100717.81
2022-11-03T22:55:14.077Z,100704.84
2022-11-03T23:00:22.889Z,100687.63
2022-11-03T23:05:29.470Z,100700.63
2022-11-03T23:10:37.421Z,100690.31
2022-11-03T23:15:44.605Z,100690.25
2022-11-03T23:21:09.916Z,100678.13
2022-11-03T23:26:18.894Z,100670.38
2022-11-03T23:31:25.554Z,100663.50
2022-11-03T23:36:32.442Z,100667.81
2022-11-03T23:41:40.485Z,100649.72
2022-11-03T23:47:04.565Z,100633.34
2022-11-03T23:52:11.485Z,100617.00
2022-11-03T23:57:36.902Z,100615.31
